createdAt,value
2018-02-04T00:01:52.020Z,97378.07
2018-02-04T00:04:20.278Z,97381.80
2018-02-04T00:06:49.306Z,97376.15
2018-02-04T00:09:17.581Z,97375.59
2018-02-04T00:11:45.838Z,97376.00
2018-02-04T00:14:14.101Z,97377.16
2018-02-04T00:16:43.942Z,97372.92
2018-02-04T00:19:12.218Z,97374.84
2018-02-04T00:21:40.477Z,97375.55
2018-02-04T00:24:08.742Z,97374.48
2018-02-04T00:26:37.771Z,97379.39
2018-02-04T00:29:06.043Z,97383.62
2018-02-04T00:31:34.301Z,97381.65
2018-02-04T00:34:02.575Z,97389.04
2018-02-04T00:36:30.859Z,97386.63
2018-02-04T00:38:59.154Z,97389.04
2018-02-04T00:41:27.400Z,97386.69
2018-02-04T00:43:55.670Z,97384.29
2018-02-04T00:46:24.687Z,97386.42
2018-02-04T00:48:52.955Z,97387.17
2018-02-04T00:51:21.206Z,97396.06
2018-02-04T00:53:50.238Z,97397.39
2018-02-04T00:56:18.504Z,97399.12
2018-02-04T00:58:46.807Z,97399.11
2018-02-04T01:01:15.069Z,97403.66
2018-02-04T01:03:43.325Z,97406.56
2018-02-04T01:06:11.582Z,97410.44
2018-02-04T01:08:40.604Z,97406.42
2018-02-04T01:11:08.877Z,97410.47
2018-02-04T01:13:37.126Z,97413.50
2018-02-04T01:16:06.168Z,97418.22
2018-02-04T01:18:34.427Z,97414.02
2018-02-04T01:21:02.689Z,97417.55
2018-02-04T01:23:30.950Z,97420.08
2018-02-04T01:25:59.985Z,97419.86
2018-02-04T01:28:28.244Z,97419.53
2018-02-04T01:30:56.510Z,97415.27
2018-02-04T01:33:24.766Z,97417.19
2018-02-04T01:35:53.806Z,97420.00
2018-02-04T01:38:22.070Z,97418.94
2018-02-04T01:40:50.658Z,97423.79
2018-02-04T01:43:19.017Z,97418.25
2018-02-04T01:45:47.426Z,97417.41
2018-02-04T01:48:15.855Z,97421.08
2018-02-04T01:50:44.870Z,97421.05
2018-02-04T01:53:13.149Z,97424.12
2018-02-04T01:55:41.406Z,97425.67
2018-02-04T01:58:09.674Z,97424.25
2018-02-04T02:00:38.712Z,97426.17
2018-02-04T02:03:06.996Z,97424.81
2018-02-04T02:05:35.243Z,97432.60
2018-02-04T02:08:03.519Z,97431.11
2018-02-04T02:10:31.791Z,97431.72
2018-02-04T02:13:00.151Z,97433.83
2018-02-04T02:15:29.175Z,97433.50
2018-02-04T02:17:57.449Z,97432.67
2018-02-04T02:20:25.709Z,97431.31
2018-02-04T02:22:53.976Z,97440.28
2018-02-04T02:25:23.025Z,97434.33
2018-02-04T02:27:51.302Z,97444.16
2018-02-04T02:30:19.564Z,97444.25
2018-02-04T02:32:47.825Z,97446.73
2018-02-04T02:35:16.094Z,97447.50
2018-02-04T02:37:44.366Z,97443.50
2018-02-04T02:40:12.629Z,97446.14
2018-02-04T02:42:40.887Z,97448.97
2018-02-04T02:45:09.956Z,97445.97
2018-02-04T02:47:38.228Z,97447.22
2018-02-04T02:50:06.494Z,97448.79
2018-02-04T02:52:34.760Z,97451.30
2018-02-04T02:55:03.033Z,97452.59
2018-02-04T02:57:31.299Z,97461.35
2018-02-04T02:59:59.565Z,97463.14
2018-02-04T03:02:27.829Z,97465.56
2018-02-04T03:04:56.103Z,97467.12
2018-02-04T03:07:24.371Z,97469.61
2018-02-04T03:09:53.401Z,97471.33
2018-02-04T03:12:21.673Z,97473.07
2018-02-04T03:14:49.942Z,97479.47
2018-02-04T03:17:18.272Z,97482.44
2018-02-04T03:19:46.522Z,97472.16
2018-02-04T03:22:14.807Z,97477.53
2018-02-04T03:24:43.831Z,97479.73
2018-02-04T03:27:12.874Z,97476.88
2018-02-04T03:29:41.139Z,97481.16
2018-02-04T03:32:09.415Z,97476.99
2018-02-04T03:34:37.671Z,97485.20
2018-02-04T03:37:05.948Z,97481.10
2018-02-04T03:39:34.207Z,97491.02
2018-02-04T03:42:03.242Z,97490.04
2018-02-04T03:44:31.500Z,97491.94
2018-02-04T03:46:59.770Z,97499.70
2018-02-04T03:49:28.036Z,97503.63
2018-02-04T03:51:56.303Z,97506.77
2018-02-04T03:54:25.335Z,97506.88
2018-02-04T03:56:53.621Z,97510.16
2018-02-04T03:59:21.871Z,97518.34
2018-02-04T04:01:50.158Z,97521.81
2018-02-04T04:04:18.412Z,97521.23
2018-02-04T04:06:46.681Z,97520.45
2018-02-04T04:09:15.707Z,97526.52
2018-02-04T04:11:43.987Z,97527.37
2018-02-04T04:14:12.248Z,97523.69
2018-02-04T04:16:40.527Z,97525.14
2018-02-04T04:19:08.791Z,97525.14
2018-02-04T04:21:37.051Z,97535.01
2018-02-04T04:24:06.084Z,97533.33
2018-02-04T04:26:34.355Z,97533.86
2018-02-04T04:29:02.625Z,97538.97
2018-02-04T04:31:30.888Z,97538.38
2018-02-04T04:33:59.155Z,97542.63
2018-02-04T04:36:27.436Z,97538.98
2018-02-04T04:38:55.694Z,97546.67
2018-02-04T04:41:23.962Z,97544.69
2018-02-04T04:43:52.999Z,97551.84
2018-02-04T04:46:21.257Z,97547.97
2018-02-04T04:48:49.528Z,97547.16
2018-02-04T04:51:17.798Z,97547.58
2018-02-04T04:53:46.067Z,97543.67
2018-02-04T04:56:15.108Z,97541.81
2018-02-04T04:58:43.377Z,97543.85
2018-02-04T05:01:11.640Z,97547.36
2018-02-04T05:03:39.937Z,97549.97
2018-02-04T05:06:08.188Z,97546.87
2018-02-04T05:08:36.439Z,97556.19
2018-02-04T05:11:05.471Z,97559.17
2018-02-04T05:13:33.739Z,97556.79
2018-02-04T05:16:02.049Z,97566.56
2018-02-04T05:18:30.303Z,97563.88
2018-02-04T05:20:58.576Z,97571.48
2018-02-04T05:23:26.835Z,97572.30
2018-02-04T05:25:55.107Z,97571.91
2018-02-04T05:28:23.376Z,97578.63
2018-02-04T05:30:51.661Z,97580.34
2018-02-04T05:33:19.943Z,97590.50
2018-02-04T05:35:48.222Z,97591.63
2018-02-04T05:38:16.485Z,97590.38
2018-02-04T05:40:44.752Z,97600.77
2018-02-04T05:43:13.069Z,97601.95
2018-02-04T05:45:42.107Z,97602.41
2018-02-04T05:48:11.131Z,97606.92
2018-02-04T05:50:39.448Z,97613.97
2018-02-04T05:53:07.748Z,97613.71
2018-02-04T05:55:36.833Z,97616.96
2018-02-04T05:58:05.122Z,97624.91
2018-02-04T06:00:34.197Z,97627.92
2018-02-04T06:03:02.509Z,97634.06
2018-02-04T06:05:30.783Z,97636.72
2018-02-04T06:07:59.082Z,97640.08
2018-02-04T06:10:27.408Z,97643.48
2018-02-04T06:12:55.716Z,97648.91
2018-02-04T06:15:24.021Z,97651.41
2018-02-04T06:17:52.325Z,97653.56
2018-02-04T06:20:20.646Z,97657.00
2018-02-04T06:22:48.935Z,97661.43
2018-02-04T06:25:17.241Z,97660.30
2018-02-04T06:27:45.531Z,97657.89
2018-02-04T06:30:13.953Z,97664.17
2018-02-04T06:32:42.294Z,97667.49
2018-02-04T06:35:10.609Z,97669.36
2018-02-04T06:37:38.932Z,97678.71
2018-02-04T06:40:07.249Z,97678.30
2018-02-04T06:42:36.312Z,97683.13
2018-02-04T06:45:04.629Z,97686.48
2018-02-04T06:47:32.930Z,97684.43
2018-02-04T06:50:01.248Z,97690.06
2018-02-04T06:52:29.554Z,97699.66
2018-02-04T06:54:58.619Z,97703.23
2018-02-04T06:57:26.918Z,97705.99
2018-02-04T06:59:55.992Z,97708.14
2018-02-04T07:02:24.278Z,97705.66
2018-02-04T07:04:53.336Z,97713.66
2018-02-04T07:07:21.634Z,97719.45
2018-02-04T07:09:49.928Z,97723.69
2018-02-04T07:12:18.254Z,97720.34
2018-02-04T07:14:46.533Z,97728.27
2018-02-04T07:17:14.811Z,97730.86
2018-02-04T07:19:43.083Z,97733.33
2018-02-04T07:22:11.341Z,97731.68
2018-02-04T07:24:39.615Z,97737.16
2018-02-04T07:27:07.868Z,97746.30
2018-02-04T07:29:36.905Z,97743.88
2018-02-04T07:32:05.171Z,97743.88
2018-02-04T07:34:33.440Z,97744.73
2018-02-04T07:37:01.731Z,97750.61
2018-02-04T07:39:30.144Z,97752.09
2018-02-04T07:41:58.477Z,97747.16
2018-02-04T07:44:26.809Z,97750.58
2018-02-04T07:46:55.163Z,97751.52
2018-02-04T07:49:23.495Z,97757.92
2018-02-04T07:51:51.845Z,97760.17
2018-02-04T07:54:20.163Z,97766.95
2018-02-04T07:56:48.562Z,97762.78
2018-02-04T07:59:16.894Z,97762.36
2018-02-04T08:01:45.240Z,97764.85
2018-02-04T08:04:13.565Z,97765.50
2018-02-04T08:06:41.886Z,97768.66
2018-02-04T08:09:10.202Z,97767.64
2018-02-04T08:11:38.558Z,97773.63
2018-02-04T08:14:06.878Z,97773.64
2018-02-04T08:16:35.207Z,97786.34
2018-02-04T08:19:03.527Z,97787.90
2018-02-04T08:21:31.848Z,97793.20
2018-02-04T08:24:00.203Z,97793.29
2018-02-04T08:26:28.574Z,97795.03
2018-02-04T08:28:56.892Z,97795.62
2018-02-04T08:31:25.236Z,97802.75
2018-02-04T08:33:53.570Z,97798.73
2018-02-04T08:36:22.650Z,97802.80
2018-02-04T08:38:51.021Z,97804.11
2018-02-04T08:41:19.358Z,97804.63
2018-02-04T08:43:47.726Z,97808.31
2018-02-04T08:46:16.067Z,97811.30
2018-02-04T08:48:45.144Z,97813.41
2018-02-04T08:51:13.558Z,97817.45
2018-02-04T08:53:41.902Z,97819.48
2018-02-04T08:56:10.243Z,97819.05
2018-02-04T08:58:38.581Z,97826.20
2018-02-04T09:01:07.662Z,97829.46
2018-02-04T09:03:36.739Z,97830.72
2018-02-04T09:06:05.072Z,97829.10
2018-02-04T09:08:33.397Z,97832.39
2018-02-04T09:11:01.721Z,97836.26
2018-02-04T09:13:30.070Z,97835.95
2018-02-04T09:15:59.608Z,97842.13
2018-02-04T09:18:27.985Z,97843.72
2018-02-04T09:20:56.311Z,97846.86
2018-02-04T09:23:24.680Z,97845.31
2018-02-04T09:25:53.006Z,97851.85
2018-02-04T09:28:21.405Z,97860.11
2018-02-04T09:30:49.716Z,97864.38
2018-02-04T09:33:18.066Z,97867.48
2018-02-04T09:35:46.406Z,97877.13
2018-02-04T09:38:15.468Z,97878.38
2018-02-04T09:40:43.938Z,97882.17
2018-02-04T09:43:12.273Z,97890.94
2018-02-04T09:45:40.627Z,97890.86
2018-02-04T09:48:09.699Z,97896.94
2018-02-04T09:50:37.998Z,97900.66
2018-02-04T09:53:07.108Z,97908.48
2018-02-04T09:55:36.250Z,97909.30
2018-02-04T09:58:05.299Z,97913.03
2018-02-04T10:00:34.352Z,97915.84
2018-02-04T10:03:02.628Z,97920.50
2018-02-04T10:05:30.886Z,97920.48
2018-02-04T10:07:59.162Z,97922.27
2018-02-04T10:10:27.428Z,97924.93
2018-02-04T10:12:55.698Z,97930.94
2018-02-04T10:15:23.958Z,97926.93
2018-02-04T10:17:52.219Z,97928.85
2018-02-04T10:20:21.248Z,97937.41
2018-02-04T10:22:49.510Z,97934.38
2018-02-04T10:25:17.776Z,97929.88
2018-02-04T10:27:46.042Z,97934.30
2018-02-04T10:30:15.072Z,97931.02
2018-02-04T10:32:43.325Z,97939.66
2018-02-04T10:35:11.579Z,97941.70
2018-02-04T10:37:40.599Z,97947.64
2018-02-04T10:40:08.852Z,97942.55
2018-02-04T10:42:37.882Z,97946.09
2018-02-04T10:45:06.149Z,97944.91
2018-02-04T10:47:34.400Z,97950.57
2018-02-04T10:50:03.415Z,97951.02
2018-02-04T10:52:31.667Z,97959.58
2018-02-04T10:55:00.678Z,97960.77
2018-02-04T10:57:28.929Z,97967.53
2018-02-04T10:59:57.945Z,97969.98
2018-02-04T11:02:26.198Z,97976.43
2018-02-04T11:04:55.214Z,97966.83
2018-02-04T11:07:23.462Z,97977.77
2018-02-04T11:09:52.511Z,97967.27
2018-02-04T11:12:20.925Z,97966.60
2018-02-04T11:14:49.299Z,97969.80
2018-02-04T11:17:17.715Z,97967.26
2018-02-04T11:19:46.033Z,97963.93
2018-02-04T11:22:14.351Z,97970.33
2018-02-04T11:24:43.461Z,97972.55
2018-02-04T11:27:12.518Z,97973.98
2018-02-04T11:29:40.815Z,97979.40
2018-02-04T11:32:21.257Z,97977.34
2018-02-04T11:34:49.505Z,97985.39
2018-02-04T11:37:17.747Z,97985.01
2018-02-04T11:39:45.989Z,97983.55
2018-02-04T11:42:14.243Z,97983.22
2018-02-04T11:44:42.508Z,97992.83
2018-02-04T11:47:10.810Z,97991.81
2018-02-04T11:49:39.000Z,97990.89
2018-02-04T11:52:07.261Z,97986.55
2018-02-04T11:54:35.493Z,97993.57
2018-02-04T11:57:03.740Z,97991.47
2018-02-04T11:59:32.751Z,97995.46
2018-02-04T12:02:01.007Z,97991.72
2018-02-04T12:04:30.019Z,97998.66
2018-02-04T12:06:58.265Z,97998.78
2018-02-04T12:09:27.277Z,97996.04
2018-02-04T12:11:55.558Z,97997.30
2018-02-04T12:14:23.810Z,98001.55
2018-02-04T12:16:52.822Z,97997.92
2018-02-04T12:19:21.073Z,97999.38
2018-02-04T12:21:49.329Z,98000.84
2018-02-04T12:24:17.668Z,98005.92
2018-02-04T12:26:45.920Z,98019.08
2018-02-04T12:29:14.171Z,98013.70
2018-02-04T12:31:42.445Z,98013.45
2018-02-04T12:34:10.695Z,98015.78
2018-02-04T12:36:38.933Z,98021.25
2018-02-04T12:39:07.219Z,98023.11
2018-02-04T12:41:35.504Z,98024.00
2018-02-04T12:44:03.786Z,98024.16
2018-02-04T12:46:32.029Z,98025.50
2018-02-04T12:49:00.282Z,98031.67
2018-02-04T12:51:29.294Z,98030.42
2018-02-04T12:53:58.406Z,98037.02
2018-02-04T12:56:26.645Z,98039.75
2018-02-04T12:58:54.902Z,98040.19
2018-02-04T13:01:23.139Z,98039.15
2018-02-04T13:03:51.383Z,98043.83
2018-02-04T13:06:19.643Z,98047.23
2018-02-04T13:08:48.653Z,98047.69
2018-02-04T13:11:17.666Z,98053.70
2018-02-04T13:13:45.919Z,98056.41
2018-02-04T13:16:14.925Z,98058.75
2018-02-04T13:18:43.186Z,98061.51
2018-02-04T13:21:12.195Z,98062.27
2018-02-04T13:23:40.489Z,98068.25
2018-02-04T13:26:08.743Z,98066.94
2018-02-04T13:28:36.997Z,98071.92
2018-02-04T13:31:06.014Z,98069.25
2018-02-04T13:33:34.261Z,98072.42
2018-02-04T13:36:03.280Z,98075.05
2018-02-04T13:38:31.526Z,98074.23
2018-02-04T13:40:59.779Z,98079.81
2018-02-04T13:43:28.019Z,98083.28
2018-02-04T13:45:56.284Z,98078.69
2018-02-04T13:48:24.530Z,98082.59
2018-02-04T13:50:52.781Z,98089.00
2018-02-04T13:53:21.035Z,98092.78
2018-02-04T13:55:49.299Z,98087.93
2018-02-04T13:58:17.554Z,98086.91
2018-02-04T14:00:45.816Z,98088.34
2018-02-04T14:03:14.836Z,98092.94
2018-02-04T14:05:43.145Z,98095.02
2018-02-04T14:08:11.352Z,98094.15
2018-02-04T14:10:40.377Z,98096.63
2018-02-04T14:13:08.818Z,98098.75
2018-02-04T14:15:37.649Z,98108.10
2018-02-04T14:18:05.938Z,98103.70
2018-02-04T14:20:34.198Z,98113.36
2018-02-04T14:23:02.455Z,98109.64
2018-02-04T14:25:31.471Z,98115.01
2018-02-04T14:27:59.728Z,98114.23
2018-02-04T14:30:28.006Z,98112.95
2018-02-04T14:32:57.020Z,98114.09
2018-02-04T14:35:25.269Z,98121.38
2018-02-04T14:37:54.294Z,98126.47
2018-02-04T14:40:22.550Z,98125.02
2018-02-04T14:42:50.824Z,98130.83
2018-02-04T14:45:19.077Z,98133.59
2018-02-04T14:47:48.111Z,98142.53
2018-02-04T14:50:16.367Z,98144.02
2018-02-04T14:52:44.636Z,98151.70
2018-02-04T14:55:13.667Z,98149.63
2018-02-04T14:57:41.925Z,98149.78
2018-02-04T15:00:10.183Z,98158.92
2018-02-04T15:02:39.209Z,98163.91
2018-02-04T15:05:07.468Z,98161.34
2018-02-04T15:07:35.730Z,98171.06
2018-02-04T15:10:03.991Z,98175.21
2018-02-04T15:12:33.017Z,98174.92
2018-02-04T15:15:01.282Z,98171.37
2018-02-04T15:17:29.544Z,98177.89
2018-02-04T15:19:58.571Z,98177.16
2018-02-04T15:22:26.838Z,98180.94
2018-02-04T15:24:55.097Z,98181.02
2018-02-04T15:27:23.374Z,98183.81
2018-02-04T15:29:52.393Z,98189.92
2018-02-04T15:32:20.669Z,98188.16
2018-02-04T15:34:48.938Z,98195.63
2018-02-04T15:37:17.202Z,98199.69
2018-02-04T15:39:45.484Z,98202.92
2018-02-04T15:42:13.745Z,98200.27
2018-02-04T15:44:42.010Z,98199.55
2018-02-04T15:47:11.101Z,98208.16
2018-02-04T15:49:40.168Z,98212.05
2018-02-04T15:52:08.447Z,98214.37
2018-02-04T15:54:36.730Z,98215.52
2018-02-04T15:57:05.163Z,98216.38
2018-02-04T15:59:33.437Z,98216.19
2018-02-04T16:02:01.687Z,98224.28
2018-02-04T16:04:29.961Z,98222.78
2018-02-04T16:06:58.983Z,98221.34
2018-02-04T16:09:27.289Z,98232.87
2018-02-04T16:11:55.566Z,98231.17
2018-02-04T16:14:23.830Z,98240.77
2018-02-04T16:16:52.095Z,98239.77
2018-02-04T16:19:20.352Z,98242.21
2018-02-04T16:21:48.609Z,98241.20
2018-02-04T16:24:17.641Z,98243.09
2018-02-04T16:26:45.906Z,98247.66
2018-02-04T16:29:14.166Z,98256.14
2018-02-04T16:31:42.443Z,98253.66
2018-02-04T16:34:10.708Z,98256.73
2018-02-04T16:36:39.011Z,98263.72
2018-02-04T16:39:07.308Z,98262.05
2018-02-04T16:41:35.563Z,98271.25
2018-02-04T16:44:03.825Z,98269.95
2018-02-04T16:46:32.116Z,98274.80
2018-02-04T16:49:00.402Z,98273.73
2018-02-04T16:51:28.674Z,98277.92
2018-02-04T16:53:56.999Z,98277.92
2018-02-04T16:56:31.971Z,98284.25
2018-02-04T16:59:00.226Z,98287.14
2018-02-04T17:01:28.506Z,98287.70
2018-02-04T17:03:57.524Z,98291.78
2018-02-04T17:06:25.798Z,98299.88
2018-02-04T17:08:54.055Z,98301.45
2018-02-04T17:11:22.327Z,98302.59
2018-02-04T17:13:50.586Z,98311.59
2018-02-04T17:16:19.618Z,98312.61
2018-02-04T17:18:48.222Z,98313.00
2018-02-04T17:21:17.256Z,98317.69
2018-02-04T17:23:46.282Z,98322.77
2018-02-04T17:26:14.546Z,98320.16
2018-02-04T17:28:42.808Z,98323.65
2018-02-04T17:31:11.838Z,98322.06
2018-02-04T17:33:40.107Z,98334.19
2018-02-04T17:36:08.386Z,98338.43
2018-02-04T17:38:36.698Z,98331.38
2018-02-04T17:41:04.949Z,98339.12
2018-02-04T17:43:33.982Z,98345.08
2018-02-04T17:46:03.023Z,98337.81
2018-02-04T17:48:31.290Z,98347.17
2018-02-04T17:50:59.559Z,98347.99
2018-02-04T17:53:27.822Z,98350.80
2018-02-04T17:55:56.845Z,98355.03
2018-02-04T17:58:25.122Z,98360.52
2018-02-04T18:00:54.357Z,98362.91
2018-02-04T18:03:22.614Z,98362.95
2018-02-04T18:05:50.914Z,98371.52
2018-02-04T18:08:19.167Z,98374.29
2018-02-04T18:10:47.434Z,98374.45
2018-02-04T18:13:15.702Z,98375.27
2018-02-04T18:15:43.958Z,98373.31
2018-02-04T18:18:12.298Z,98369.66
2018-02-04T18:20:40.570Z,98370.72
2018-02-04T18:23:08.924Z,98374.16
2018-02-04T18:25:37.154Z,98383.88
2018-02-04T18:28:05.426Z,98380.73
2018-02-04T18:30:34.456Z,98382.87
2018-02-04T18:33:02.727Z,98378.28
2018-02-04T18:35:30.996Z,98381.89
2018-02-04T18:37:59.263Z,98388.97
2018-02-04T18:40:27.582Z,98391.56
2018-02-04T18:42:55.832Z,98386.66
2018-02-04T18:45:24.105Z,98393.39
2018-02-04T18:47:52.359Z,98394.48
2018-02-04T18:50:20.634Z,98398.32
2018-02-04T18:52:48.922Z,98401.96
2018-02-04T18:55:17.189Z,98403.52
2018-02-04T18:57:45.502Z,98409.03
2018-02-04T19:00:13.755Z,98408.55
2018-02-04T19:02:42.008Z,98411.32
2018-02-04T19:05:10.398Z,98413.13
2018-02-04T19:07:38.676Z,98418.55
2018-02-04T19:10:06.926Z,98416.04
2018-02-04T19:12:35.956Z,98424.51
2018-02-04T19:15:04.215Z,98424.07
2018-02-04T19:17:32.537Z,98424.73
2018-02-04T19:20:00.784Z,98426.42
2018-02-04T19:22:29.097Z,98432.87
2018-02-04T19:24:57.347Z,98434.58
2018-02-04T19:27:25.609Z,98439.16
2018-02-04T19:29:53.874Z,98438.90
2018-02-04T19:32:22.147Z,98449.26
2018-02-04T19:34:50.461Z,98453.22
2018-02-04T19:37:18.721Z,98456.56
2018-02-04T19:39:46.978Z,98454.36
2018-02-04T19:42:15.259Z,98465.41
2018-02-04T19:44:43.571Z,98461.20
2018-02-04T19:47:11.894Z,98467.28
2018-02-04T19:49:40.952Z,98464.97
2018-02-04T19:52:10.071Z,98464.06
2018-02-04T19:54:38.357Z,98475.16
2018-02-04T19:57:07.377Z,98477.19
2018-02-04T19:59:35.723Z,98480.41
2018-02-04T20:02:03.937Z,98480.16
2018-02-04T20:04:32.254Z,98481.75
2018-02-04T20:07:00.524Z,98490.26
2018-02-04T20:09:28.865Z,98496.20
2018-02-04T20:11:57.129Z,98491.36
2018-02-04T20:14:25.396Z,98493.97
2018-02-04T20:16:53.655Z,98504.77
2018-02-04T20:19:22.692Z,98499.20
2018-02-04T20:21:50.962Z,98502.02
2018-02-04T20:24:19.295Z,98508.64
2018-02-04T20:26:54.430Z,98507.98
2018-02-04T20:29:22.746Z,98513.20
2018-02-04T20:31:51.089Z,98517.38
2018-02-04T20:34:37.168Z,98522.09
2018-02-04T20:37:05.438Z,98520.55
2018-02-04T20:39:33.716Z,98527.78
2018-02-04T20:42:02.025Z,98525.91
2018-02-04T20:44:31.059Z,98530.48
2018-02-04T20:46:59.332Z,98536.14
2018-02-04T20:49:27.596Z,98539.78
2018-02-04T20:51:55.904Z,98539.17
2018-02-04T20:54:24.215Z,98545.48
2018-02-04T20:56:53.276Z,98543.73
2018-02-04T20:59:21.547Z,98547.34
2018-02-04T21:01:49.806Z,98552.53
2018-02-04T21:04:18.123Z,98552.89
2018-02-04T21:06:46.385Z,98556.91
2018-02-04T21:09:14.696Z,98557.48
2018-02-04T21:11:43.731Z,98563.00
2018-02-04T21:14:12.063Z,98561.64
2018-02-04T21:16:41.138Z,98559.97
2018-02-04T21:19:09.407Z,98568.77
2018-02-04T21:21:37.666Z,98574.75
2018-02-04T21:24:05.944Z,98576.51
2018-02-04T21:26:35.025Z,98572.92
2018-02-04T21:29:03.288Z,98576.39
2018-02-04T21:31:31.551Z,98582.66
2018-02-04T21:33:59.823Z,98583.18
2018-02-04T21:36:28.138Z,98591.44
2018-02-04T21:38:56.444Z,98587.46
2018-02-04T21:41:24.745Z,98596.38
2018-02-04T21:43:53.810Z,98597.23
2018-02-04T21:46:22.067Z,98606.23
2018-02-04T21:48:50.393Z,98604.17
2018-02-04T21:51:19.456Z,98609.42
2018-02-04T21:53:47.800Z,98610.25
2018-02-04T21:56:16.073Z,98608.42
2018-02-04T21:58:44.340Z,98607.52
2018-02-04T22:01:12.602Z,98619.68
2018-02-04T22:03:40.917Z,98615.34
2018-02-04T22:06:09.193Z,98611.45
2018-02-04T22:08:37.455Z,98625.13
2018-02-04T22:11:05.732Z,98625.17
2018-02-04T22:13:33.994Z,98626.98
2018-02-04T22:16:02.266Z,98627.98
2018-02-04T22:18:30.584Z,98630.69
2018-02-04T22:20:58.816Z,98629.77
2018-02-04T22:23:27.087Z,98642.02
2018-02-04T22:25:55.362Z,98635.20
2018-02-04T22:28:23.622Z,98644.78
2018-02-04T22:30:51.913Z,98640.95
2018-02-04T22:33:20.179Z,98642.73
2018-02-04T22:35:48.442Z,98642.98
2018-02-04T22:38:17.475Z,98640.63
2018-02-04T22:40:45.744Z,98639.50
2018-02-04T22:43:14.017Z,98644.52
2018-02-04T22:45:42.280Z,98644.72
2018-02-04T22:48:10.561Z,98653.03
2018-02-04T22:50:38.826Z,98655.88
2018-02-04T22:53:07.090Z,98662.59
2018-02-04T22:55:36.132Z,98663.95
2018-02-04T22:58:04.390Z,98659.94
2018-02-04T23:00:32.657Z,98666.73
2018-02-04T23:03:00.942Z,98672.61
2018-02-04T23:05:29.250Z,98671.82
2018-02-04T23:07:57.524Z,98673.16
2018-02-04T23:10:26.556Z,98673.48
2018-02-04T23:12:55.592Z,98677.95
2018-02-04T23:15:23.850Z,98679.38
2018-02-04T23:17:52.128Z,98691.13
2018-02-04T23:20:20.418Z,98690.83
2018-02-04T23:22:48.687Z,98689.48
2018-02-04T23:25:16.948Z,98696.78
2018-02-04T23:27:45.219Z,98696.78
2018-02-04T23:30:13.478Z,98695.77
2018-02-04T23:32:42.513Z,98696.59
2018-02-04T23:35:10.786Z,98697.84
2018-02-04T23:37:39.041Z,98698.29
2018-02-04T23:40:07.310Z,98694.56
2018-02-04T23:42:35.602Z,98692.27
2018-02-04T23:45:03.849Z,98699.56
2018-02-04T23:47:32.933Z,98702.61
2018-02-04T23:50:01.197Z,98705.81
2018-02-04T23:52:29.463Z,98708.92
2018-02-04T23:54:57.725Z,98711.53
2018-02-04T23:57:25.986Z,98706.59
2018-02-04T23:59:54.250Z,98707.97
